Time;durP1;ratioP1;P1;durP2;ratioP2;P2;SDS_P1;SDS_P2;PMS_P1;PMS_P2;Temp;Humidity;BMP_temperature;BMP_pressure;BME280_temperature;BME280_humidity;BME280_pressure;Samples;Min_cycle;Max_cycle;Signal;HPM_P1;HPM_P2
2023/08/25 00:03:15;;;;;;;3.13;1.00;;;;;;;23.51;51.06;100842.81;16113366;19;129480;-62
2023/08/25 00:08:37;;;;;;;3.45;1.02;;;;;;;23.50;51.07;100832.78;16116374;19;130897;-62
2023/08/25 00:13:59;;;;;;;1.85;1.10;;;;;;;23.49;51.08;100840.31;16113327;19;129354;-62
2023/08/25 00:19:21;;;;;;;2.15;1.27;;;;;;;23.49;50.91;100831.13;16114157;19;129711;-63
2023/08/25 00:24:43;;;;;;;2.58;1.00;;;;;;;23.48;51.14;100841.44;16118121;19;129874;-62
2023/08/25 00:30:06;;;;;;;2.40;1.00;;;;;;;23.48;51.14;100841.44;16112630;19;130311;-62
2023/08/25 00:35:28;;;;;;;2.22;0.98;;;;;;;23.47;51.12;100845.34;16110747;19;130740;-62
2023/08/25 00:40:50;;;;;;;1.52;0.90;;;;;;;23.47;51.09;100841.72;16109972;19;130801;-62
2023/08/25 00:46:13;;;;;;;2.00;0.80;;;;;;;23.46;50.71;100838.06;16111411;19;129724;-62
2023/08/25 00:51:35;;;;;;;2.83;1.10;;;;;;;23.46;51.07;100837.25;16109605;19;131770;-63
2023/08/25 00:56:57;;;;;;;1.95;0.95;;;;;;;23.46;51.07;100845.63;16111880;19;130702;-62
2023/08/25 01:02:19;;;;;;;1.33;0.80;;;;;;;23.45;50.91;100835.56;16109913;19;130745;-62
2023/08/25 01:07:43;;;;;;;1.50;0.82;;;;;;;23.45;50.92;100838.38;16110211;19;129792;-62
2023/08/25 01:13:16;;;;;;;1.30;0.77;;;;;;;23.45;51.25;100841.97;16109660;19;130572;-62
2023/08/25 01:18:41;;;;;;;1.85;0.90;;;;;;;23.44;51.22;100833.91;16108795;19;130096;-63
2023/08/25 01:24:21;;;;;;;2.05;0.90;;;;;;;23.43;50.77;100833.06;16108418;19;129543;-62
2023/08/25 01:29:43;;;;;;;1.77;0.95;;;;;;;23.41;50.88;100818.56;16109011;19;130088;-62
2023/08/25 01:35:06;;;;;;;1.33;0.77;;;;;;;23.41;51.10;100821.34;16109155;19;129551;-62
2023/08/25 01:40:37;;;;;;;1.80;0.90;;;;;;;23.41;51.07;100812.13;16108519;19;129374;-62
2023/08/25 01:45:59;;;;;;;2.05;1.02;;;;;;;23.39;50.53;100815.22;16102246;19;130334;-62
2023/08/25 01:51:21;;;;;;;2.15;0.90;;;;;;;23.40;50.87;100821.59;16111990;19;129407;-62
2023/08/25 01:56:43;;;;;;;2.53;0.90;;;;;;;23.40;50.86;100810.44;16105939;19;129644;-63
2023/08/25 02:02:05;;;;;;;0.90;0.90;;;;;;;23.39;50.97;100811.56;16110855;19;130140;-62
2023/08/25 02:07:27;;;;;;;1.58;1.00;;;;;;;23.38;50.82;100810.75;16119278;19;130302;-62
2023/08/25 02:12:49;;;;;;;1.70;0.80;;;;;;;23.37;50.87;100794.28;16122219;19;131109;-62
2023/08/25 02:18:11;;;;;;;1.10;0.70;;;;;;;23.36;50.71;100787.84;16125789;19;130762;-62
2023/08/25 02:23:33;;;;;;;1.25;0.75;;;;;;;23.36;50.85;100790.63;16120388;19;129354;-63
2023/08/25 02:28:55;;;;;;;3.08;0.70;;;;;;;23.36;51.02;100779.47;16118637;19;129521;-62
2023/08/25 02:34:18;;;;;;;1.45;0.95;;;;;;;23.35;50.73;100766.63;16119192;19;129885;-62
2023/08/25 02:39:41;;;;;;;2.38;0.80;;;;;;;23.33;50.97;100772.50;16120987;19;130765;-63
2023/08/25 02:45:03;;;;;;;1.48;0.85;;;;;;;23.34;51.12;100756.59;16119447;19;129936;-62
2023/08/25 02:50:25;;;;;;;1.77;0.80;;;;;;;23.32;50.73;100747.69;16121728;19;129772;-63
2023/08/25 02:55:47;;;;;;;1.05;0.80;;;;;;;23.32;50.59;100737.34;16122995;19;129379;-62
2023/08/25 03:01:12;;;;;;;1.38;0.90;;;;;;;23.32;50.65;100737.34;16121631;19;129827;-62
2023/08/25 03:06:35;;;;;;;1.60;1.00;;;;;;;23.30;50.95;100722.81;16116736;19;129831;-62
2023/08/25 03:11:57;;;;;;;1.63;0.90;;;;;;;23.30;50.77;100727.59;16117390;19;131453;-62
2023/08/25 03:17:19;;;;;;;1.60;1.00;;;;;;;23.30;50.60;100722.81;16120415;19;133283;-62
2023/08/25 03:22:42;;;;;;;2.17;0.90;;;;;;;23.29;50.65;100723.13;16121236;19;129581;-62
2023/08/25 03:28:04;;;;;;;1.40;1.10;;;;;;;23.28;50.76;100719.47;16119240;19;131523;-62
2023/08/25 03:33:26;;;;;;;1.05;0.70;;;;;;;23.30;50.39;100705.25;16119524;19;130005;-62
2023/08/25 03:38:48;;;;;;;1.40;0.90;;;;;;;23.27;50.48;100712.22;16122332;19;130136;-62
2023/08/25 03:44:10;;;;;;;1.75;0.85;;;;;;;23.27;50.72;100709.44;16119024;19;129946;-62
2023/08/25 03:49:32;;;;;;;0.98;0.80;;;;;;;23.26;50.64;100705.00;16171257;19;129686;-62
2023/08/25 03:54:54;;;;;;;0.85;0.60;;;;;;;23.26;50.90;100707.78;16197521;19;129984;-61
2023/08/25 04:00:16;;;;;;;1.20;0.85;;;;;;;23.26;50.61;100713.38;16199919;19;129445;-61
2023/08/25 04:05:38;;;;;;;1.35;0.70;;;;;;;23.25;50.59;100697.75;16200875;19;130078;-62
2023/08/25 04:11:00;;;;;;;0.95;0.70;;;;;;;23.25;50.36;100703.31;16189444;19;130518;-62
2023/08/25 04:16:22;;;;;;;0.80;0.63;;;;;;;23.25;50.29;100699.69;16195983;19;130672;-62
2023/08/25 04:21:44;;;;;;;0.88;0.80;;;;;;;23.25;50.48;100691.31;16190707;19;129501;-62
2023/08/25 04:27:06;;;;;;;0.50;0.50;;;;;;;23.22;50.26;100689.94;16132693;19;131330;-62
2023/08/25 04:32:28;;;;;;;0.70;0.70;;;;;;;23.22;50.53;100692.72;16136361;19;129738;-62
2023/08/25 04:37:50;;;;;;;1.15;0.52;;;;;;;23.22;50.71;100700.22;16138484;19;130451;-61
2023/08/25 04:43:13;;;;;;;1.55;0.63;;;;;;;23.22;50.78;100687.13;16136576;19;129820;-62
2023/08/25 04:48:35;;;;;;;0.93;0.60;;;;;;;23.23;50.29;100688.81;16136143;19;128972;-61
2023/08/25 04:53:59;;;;;;;1.37;0.80;;;;;;;23.21;50.77;100685.47;16137624;19;132108;-61
2023/08/25 04:59:21;;;;;;;1.75;0.80;;;;;;;23.20;50.48;100689.38;16127740;19;130389;-62
2023/08/25 05:04:43;;;;;;;1.60;0.80;;;;;;;23.20;50.53;100700.53;16111974;19;130870;-62
2023/08/25 05:10:05;;;;;;;1.17;0.47;;;;;;;23.20;50.78;100678.22;16113081;19;129850;-62
2023/08/25 05:15:27;;;;;;;1.42;0.80;;;;;;;23.18;50.59;100661.75;16108767;19;131026;-64
2023/08/25 05:20:49;;;;;;;1.50;0.73;;;;;;;23.18;50.55;100650.59;16111232;19;130859;-62
2023/08/25 05:26:11;;;;;;;0.75;0.60;;;;;;;23.19;50.53;100657.00;16110407;19;129689;-63
2023/08/25 05:31:33;;;;;;;1.13;0.60;;;;;;;23.19;50.53;100621.56;16105445;19;130391;-63
2023/08/25 05:36:55;;;;;;;1.27;0.80;;;;;;;23.20;50.37;100633.56;16114490;19;131317;-63
2023/08/25 05:42:17;;;;;;;1.50;0.70;;;;;;;23.20;50.69;100644.72;16126855;19;129831;-62
2023/08/25 05:47:43;;;;;;;1.48;0.80;;;;;;;23.19;50.30;100627.16;16122049;19;129558;-62
2023/08/25 05:53:05;;;;;;;1.95;0.60;;;;;;;23.18;50.49;100650.59;16122518;19;130358;-63
2023/08/25 05:58:27;;;;;;;1.65;0.60;;;;;;;23.19;50.62;100640.25;16123230;19;131458;-63
2023/08/25 06:03:49;;;;;;;2.45;0.80;;;;;;;23.17;50.71;100629.38;16126605;19;130436;-63
2023/08/25 06:09:12;;;;;;;2.50;0.60;;;;;;;23.18;50.79;100635.78;16123555;19;131087;-63
2023/08/25 06:14:35;;;;;;;1.27;0.70;;;;;;;23.18;50.63;100613.47;16122017;19;129599;-64
2023/08/25 06:19:57;;;;;;;1.02;0.70;;;;;;;23.18;50.41;100641.38;16125760;19;130016;-63
2023/08/25 06:25:19;;;;;;;1.42;0.60;;;;;;;23.17;50.68;100675.97;16130903;19;130719;-63
2023/08/25 06:30:41;;;;;;;1.73;0.77;;;;;;;23.17;50.85;100731.78;16131196;19;129653;-63
2023/08/25 06:36:04;;;;;;;1.75;0.73;;;;;;;23.17;50.64;100662.03;16124876;19;131244;-60
2023/08/25 06:41:26;;;;;;;2.13;0.90;;;;;;;23.16;50.53;100627.72;16130091;19;129829;-63
2023/08/25 06:46:48;;;;;;;2.58;0.80;;;;;;;23.15;50.52;100676.28;16124940;19;129708;-63
2023/08/25 06:52:10;;;;;;;1.38;0.80;;;;;;;23.14;50.55;100718.41;16124317;19;130632;-63
2023/08/25 06:57:34;;;;;;;1.00;0.80;;;;;;;23.13;50.62;100717.56;16123621;19;129540;-63
2023/08/25 07:02:56;;;;;;;0.98;0.88;;;;;;;23.14;50.76;100685.75;16122792;19;129838;-63
2023/08/25 07:08:18;;;;;;;3.25;0.98;;;;;;;23.15;50.65;100704.16;16122000;19;130427;-63
2023/08/25 07:13:40;;;;;;;1.13;0.68;;;;;;;23.16;50.57;100677.94;16120562;19;130607;-63
2023/08/25 07:19:02;;;;;;;1.85;0.70;;;;;;;23.16;50.67;100668.72;16122844;19;130882;-65
2023/08/25 07:24:24;;;;;;;2.75;0.95;;;;;;;23.15;50.98;100653.09;16122673;19;129647;-64
2023/08/25 07:29:45;;;;;;;1.73;0.70;;;;;;;23.15;50.72;100655.88;16119355;19;129646;-63
2023/08/25 07:35:08;;;;;;;2.55;0.90;;;;;;;23.14;50.82;100665.41;16115692;19;130343;-63
2023/08/25 07:40:31;;;;;;;1.40;0.82;;;;;;;23.14;50.76;100670.97;16117942;19;131464;-63
2023/08/25 07:45:54;;;;;;;2.72;0.70;;;;;;;23.13;50.70;100666.53;16114978;19;129471;-63
2023/08/25 07:51:16;;;;;;;1.35;0.65;;;;;;;23.12;50.53;100659.25;16115880;19;129749;-63
2023/08/25 07:56:48;;;;;;;1.70;0.70;;;;;;;23.11;50.65;100652.00;16118440;19;129640;-64
2023/08/25 08:02:12;;;;;;;1.83;0.80;;;;;;;23.10;50.47;100655.91;16111477;19;130321;-63
2023/08/25 08:07:34;;;;;;;4.40;0.80;;;;;;;23.11;50.86;100713.41;16117441;19;130125;-64
2023/08/25 08:12:56;;;;;;;4.50;1.00;;;;;;;23.09;50.90;100738.78;16117001;19;129892;-64
2023/08/25 08:18:18;;;;;;;1.77;0.70;;;;;;;23.08;50.41;100708.38;16120413;19;130247;-64
2023/08/25 08:23:40;;;;;;;2.13;0.70;;;;;;;23.08;50.75;100709.19;16119561;19;129520;-64
2023/08/25 08:29:02;;;;;;;1.92;0.80;;;;;;;23.08;50.63;100708.38;16118756;19;131489;-63
2023/08/25 08:34:24;;;;;;;2.60;0.80;;;;;;;23.07;50.60;100673.22;16117425;19;130994;-64
2023/08/25 08:39:46;;;;;;;3.13;0.90;;;;;;;23.07;50.88;100674.06;16121627;19;129088;-64
2023/08/25 08:45:10;;;;;;;4.45;1.15;;;;;;;23.09;50.87;100687.72;16116122;19;130094;-62
2023/08/25 08:50:33;;;;;;;2.23;0.90;;;;;;;23.09;50.80;100693.31;16116823;19;130312;-64
2023/08/25 08:55:57;;;;;;;2.53;0.80;;;;;;;23.09;50.80;100698.88;16116395;19;130398;-64
2023/08/25 09:01:19;;;;;;;2.63;0.70;;;;;;;23.11;50.64;100691.06;16116901;19;129399;-64
2023/08/25 09:06:43;;;;;;;2.92;0.90;;;;;;;23.13;50.73;100666.53;16117075;19;130031;-64
2023/08/25 09:12:05;;;;;;;3.17;0.82;;;;;;;23.14;50.80;100668.19;16112023;19;129877;-63
2023/08/25 09:17:27;;;;;;;1.67;0.70;;;;;;;23.19;50.35;100693.28;16114963;19;129744;-63
2023/08/25 09:22:55;;;;;;;1.23;0.80;;;;;;;23.20;50.73;100697.75;16116791;19;130638;-64
2023/08/25 09:28:22;;;;;;;2.42;0.88;;;;;;;23.21;50.71;100685.47;16113181;19;129485;-63
2023/08/25 09:33:45;;;;;;;2.65;0.93;;;;;;;23.21;50.67;100707.78;16110293;19;130528;-59
2023/08/25 09:39:07;;;;;;;1.17;0.90;;;;;;;23.22;50.67;100706.66;16107243;19;130293;-58
2023/08/25 09:44:32;;;;;;;2.80;1.25;;;;;;;23.26;50.99;100693.84;16110719;19;130899;-55
2023/08/25 09:49:55;;;;;;;4.80;0.88;;;;;;;23.30;51.33;100678.16;16108219;19;130326;-57
2023/08/25 09:55:18;;;;;;;2.55;0.90;;;;;;;23.33;50.72;100702.72;16109222;19;129626;-57
2023/08/25 10:00:40;;;;;;;1.60;0.82;;;;;;;23.35;50.97;100692.13;16111085;19;129332;-58
2023/08/25 10:06:04;;;;;;;2.05;0.90;;;;;;;23.38;51.32;100712.22;16113266;19;129945;-60
2023/08/25 10:11:29;;;;;;;4.05;1.05;;;;;;;23.38;51.02;100717.78;16107174;19;129936;-59
2023/08/25 10:16:52;;;;;;;1.97;0.80;;;;;;;23.38;51.17;100723.38;16108210;19;128986;-59
2023/08/25 10:22:15;;;;;;;3.17;0.90;;;;;;;23.38;50.90;100728.97;16109804;19;129990;-53
2023/08/25 10:27:38;;;;;;;2.15;1.00;;;;;;;23.40;51.46;100721.13;16126121;19;130708;-59
2023/08/25 10:33:08;;;;;;;1.58;0.70;;;;;;;23.41;51.35;100728.38;16122826;19;131177;-57
2023/08/25 10:38:34;;;;;;;2.53;0.80;;;;;;;23.41;51.06;100729.22;16120419;19;129876;-59
2023/08/25 10:43:56;;;;;;;3.45;1.00;;;;;;;23.39;51.00;100731.47;16123366;19;131373;-59
2023/08/25 10:49:19;;;;;;;1.80;1.08;;;;;;;23.39;50.87;100714.72;16117407;19;129906;-59
2023/08/25 10:54:44;;;;;;;1.75;0.80;;;;;;;23.40;50.97;100709.94;16118867;19;130420;-59
2023/08/25 11:00:43;;;;;;;1.60;1.03;;;;;;;23.41;51.33;100722.78;16122633;19;129552;-59
2023/08/25 11:06:44;;;;;;;3.15;0.80;;;;;;;23.40;51.00;100737.88;16114825;19;131037;-59
2023/08/25 11:12:08;;;;;;;3.22;0.80;;;;;;;23.37;51.15;100725.31;16120119;19;130015;-59
2023/08/25 11:17:31;;;;;;;3.17;1.10;;;;;;;23.37;51.12;100716.94;16118238;19;130895;-60
2023/08/25 11:22:56;;;;;;;1.65;0.85;;;;;;;23.39;50.80;100708.28;16121222;19;130758;-62
2023/08/25 11:28:38;;;;;;;2.08;0.80;;;;;;;23.39;51.25;100711.91;16124858;19;129594;-61
2023/08/25 11:34:00;;;;;;;2.35;0.75;;;;;;;23.41;51.20;100701.31;16118407;19;131097;-53
2023/08/25 11:39:22;;;;;;;4.10;1.00;;;;;;;23.45;51.29;100715.53;16118476;19;130788;-59
2023/08/25 11:44:44;;;;;;;6.38;0.93;;;;;;;23.50;51.54;100733.09;16115985;19;131544;-59
2023/08/25 11:50:09;;;;;;;4.35;1.30;;;;;;;23.53;51.56;100714.09;16118583;19;130775;-60
2023/08/25 11:55:34;;;;;;;6.60;1.33;;;;;;;23.54;51.15;100738.13;16120130;19;129747;-57
2023/08/25 12:01:07;;;;;;;4.40;1.05;;;;;;;23.58;51.63;100717.75;16121308;19;130722;-57
2023/08/25 12:06:29;;;;;;;6.82;0.95;;;;;;;23.63;51.79;100714.09;16113328;19;129611;-65
2023/08/25 12:11:54;;;;;;;2.47;1.02;;;;;;;23.69;51.38;100706.53;16117584;19;130835;-67
2023/08/25 12:17:35;;;;;;;;;;;;;;;23.71;51.65;100721.03;16113351;19;130680;-63
2023/08/25 12:23:00;;;;;;;7.80;1.35;;;;;;;23.75;51.32;100713.78;16118341;19;130545;-62
2023/08/25 12:28:25;;;;;;;2.50;1.25;;;;;;;23.77;51.39;100714.28;16114071;19;129814;-62
2023/08/25 12:33:47;;;;;;;7.72;2.50;;;;;;;23.78;51.52;100710.38;16116943;19;131443;-61
2023/08/25 12:39:09;;;;;;;5.32;1.90;;;;;;;23.81;51.46;100709.81;16116392;19;129585;-62
2023/08/25 12:44:31;;;;;;;8.63;2.40;;;;;;;23.80;51.72;100699.75;16114262;19;130618;-65
2023/08/25 12:49:53;;;;;;;3.92;1.98;;;;;;;23.82;51.57;100689.16;16113903;19;130154;-66
2023/08/25 12:55:15;;;;;;;4.40;2.83;;;;;;;23.84;51.51;100700.00;16115115;19;129592;-62
2023/08/25 13:00:42;;;;;;;10.73;3.30;;;;;;;23.85;51.71;100712.88;16117591;19;129917;-64
2023/08/25 13:06:05;;;;;;;7.13;4.00;;;;;;;23.84;51.80;100714.84;16109954;19;135484;-63
2023/08/25 13:11:27;;;;;;;10.10;4.82;;;;;;;23.85;51.88;100719.31;16110713;19;130759;-63
2023/08/25 13:16:49;;;;;;;16.40;6.22;;;;;;;23.85;51.94;100710.91;16114538;19;130088;-65
2023/08/25 13:22:11;;;;;;;9.38;6.32;;;;;;;23.84;51.79;100714.84;16112560;19;130403;-62
2023/08/25 13:27:33;;;;;;;15.00;7.78;;;;;;;23.85;51.94;100712.88;16113490;19;129528;-63
2023/08/25 13:32:56;;;;;;;17.42;7.97;;;;;;;23.85;52.23;100719.31;16111138;19;130234;-62
2023/08/25 13:38:18;;;;;;;10.13;8.50;;;;;;;23.87;51.93;100725.44;16112778;19;131631;-63
2023/08/25 13:43:40;;;;;;;11.13;9.40;;;;;;;23.87;51.93;100724.59;16113126;19;131226;-62
2023/08/25 13:49:03;;;;;;;12.10;10.05;;;;;;;23.86;52.24;100723.78;16113398;19;130540;-62
2023/08/25 13:54:25;;;;;;;14.68;10.15;;;;;;;23.87;52.42;100724.59;16114784;19;129691;-61
2023/08/25 13:59:48;;;;;;;11.80;10.35;;;;;;;23.86;52.10;100704.22;16125148;19;131252;-64
2023/08/25 14:05:12;;;;;;;13.07;11.07;;;;;;;23.88;52.36;100706.72;16128810;19;129586;-69
2023/08/25 14:10:35;;;;;;;14.60;11.63;;;;;;;23.87;52.12;100705.88;16128242;19;131212;-63
2023/08/25 14:15:56;;;;;;;16.38;11.45;;;;;;;23.88;52.26;100703.91;16131268;19;129386;-65
2023/08/25 14:21:19;;;;;;;14.02;11.27;;;;;;;23.89;52.21;100706.41;16127867;19;130007;-70
2023/08/25 14:26:41;;;;;;;14.00;11.48;;;;;;;23.90;52.03;100719.25;16131401;19;129486;-67
2023/08/25 14:32:04;;;;;;;14.57;12.10;;;;;;;23.91;52.17;100723.72;16128655;19;131066;-68
2023/08/25 14:37:26;;;;;;;18.13;12.07;;;;;;;23.92;52.26;100728.19;16127670;19;130203;-65
2023/08/25 14:42:50;;;;;;;19.70;13.13;;;;;;;23.93;52.36;100729.88;16127985;19;131022;-66
2023/08/25 14:48:12;;;;;;;18.15;12.88;;;;;;;23.93;52.02;100729.88;16126444;19;129549;-69
2023/08/25 14:53:34;;;;;;;21.23;12.00;;;;;;;23.93;51.98;100745.81;16126121;19;129620;-66
2023/08/25 14:58:56;;;;;;;20.33;11.60;;;;;;;23.91;52.05;100737.69;16119258;19;131206;-65
2023/08/25 15:04:18;;;;;;;19.85;12.25;;;;;;;23.90;51.85;100735.19;16122977;19;130525;-64
2023/08/25 15:09:40;;;;;;;17.35;12.45;;;;;;;23.88;51.88;100734.66;16123113;19;130977;-61
2023/08/25 15:15:03;;;;;;;20.15;12.60;;;;;;;23.87;51.78;100742.22;16124163;19;131630;-62
2023/08/25 15:20:26;;;;;;;21.70;12.48;;;;;;;23.87;52.19;100736.63;16119445;19;134503;-62
2023/08/25 15:25:47;;;;;;;19.58;10.93;;;;;;;23.86;51.99;100734.94;16118411;19;132113;-64
2023/08/25 15:31:11;;;;;;;21.88;10.93;;;;;;;23.86;52.04;100720.97;16116352;19;129802;-61
2023/08/25 15:36:33;;;;;;;17.38;10.93;;;;;;;23.87;52.27;100735.75;16118863;19;130119;-64
2023/08/25 15:41:55;;;;;;;16.50;10.43;;;;;;;23.86;52.21;100732.16;16118299;19;129695;-62
2023/08/25 15:47:17;;;;;;;17.38;10.13;;;;;;;23.87;52.01;100719.00;16119511;19;129990;-62
2023/08/25 15:52:39;;;;;;;16.80;9.05;;;;;;;23.85;52.35;100716.50;16120158;19;130549;-65
2023/08/25 15:58:10;;;;;;;17.50;9.65;;;;;;;23.83;51.98;100724.34;16118696;19;130773;-63
2023/08/25 16:03:32;;;;;;;14.50;9.88;;;;;;;23.81;52.33;100726.56;16120806;19;131209;-62
2023/08/25 16:08:56;;;;;;;17.33;9.70;;;;;;;23.81;52.27;100741.41;16119534;19;129919;-63
2023/08/25 16:14:18;;;;;;;22.10;10.23;;;;;;;23.79;52.48;100728.81;16110790;19;130583;-63
2023/08/25 16:19:40;;;;;;;17.02;9.43;;;;;;;23.76;52.21;100721.00;16111048;19;131074;-63
2023/08/25 16:25:02;;;;;;;15.05;8.77;;;;;;;23.76;51.81;100721.84;16118410;19;129899;-67
2023/08/25 16:30:28;;;;;;;12.65;9.60;;;;;;;23.74;52.14;100732.47;16114856;19;130767;-62
2023/08/25 16:35:50;;;;;;;15.82;9.25;;;;;;;23.74;52.08;100726.06;16115034;19;130714;-62
2023/08/25 16:41:12;;;;;;;14.43;8.30;;;;;;;23.74;52.11;100728.84;16115942;19;130367;-63
2023/08/25 16:46:34;;;;;;;13.77;8.80;;;;;;;23.72;51.96;100723.53;16114103;19;129582;-62
2023/08/25 16:51:56;;;;;;;15.95;8.55;;;;;;;23.71;52.10;100718.25;16112623;19;130732;-62
2023/08/25 16:57:18;;;;;;;10.60;8.15;;;;;;;23.70;51.97;100727.75;16112804;19;131363;-61
2023/08/25 17:02:45;;;;;;;12.35;7.88;;;;;;;23.68;52.04;100722.47;16112930;19;130366;-63
2023/08/25 17:08:08;;;;;;;14.00;8.27;;;;;;;23.66;51.60;100728.31;16109129;19;129660;-64
2023/08/25 17:13:30;;;;;;;9.88;7.95;;;;;;;23.66;51.69;100730.28;16114511;19;131451;-64
2023/08/25 17:18:52;;;;;;;11.93;8.02;;;;;;;23.64;52.05;100738.94;16111957;19;131636;-69
2023/08/25 17:24:16;;;;;;;12.27;7.35;;;;;;;23.62;51.86;100735.59;16117630;19;129695;-68
2023/08/25 17:29:37;;;;;;;12.02;7.25;;;;;;;23.61;52.06;100736.72;16116983;19;129703;-69
2023/08/25 17:35:00;;;;;;;8.65;6.80;;;;;;;23.60;52.00;100732.25;16122158;19;133775;-69
2023/08/25 17:40:22;;;;;;;13.32;7.60;;;;;;;23.59;52.03;100727.78;16126619;19;130473;-68
2023/08/25 17:45:44;;;;;;;9.80;6.53;;;;;;;23.60;52.37;100746.22;16130447;19;130802;-66
2023/08/25 17:51:06;;;;;;;12.60;7.20;;;;;;;23.61;52.09;100750.69;16126537;19;130182;-64
2023/08/25 17:56:28;;;;;;;14.13;7.32;;;;;;;23.62;52.24;100752.38;16125851;19;130084;-66
2023/08/25 18:01:50;;;;;;;8.50;6.70;;;;;;;23.61;52.29;100747.91;16125195;19;130399;-63
2023/08/25 18:07:13;;;;;;;14.73;7.15;;;;;;;23.62;52.12;100729.16;16126394;19;131145;-68
2023/08/25 18:12:34;;;;;;;10.50;6.68;;;;;;;23.62;52.22;100735.59;16128370;19;129619;-73
2023/08/25 18:17:56;;;;;;;8.35;6.50;;;;;;;23.62;52.31;100744.00;16128541;19;129712;-63
2023/08/25 18:23:19;;;;;;;6.63;5.85;;;;;;;23.62;52.40;100783.09;16126516;19;129360;-61
2023/08/25 18:28:43;;;;;;;10.52;6.25;;;;;;;23.62;52.31;100788.66;16123222;19;130421;-68
2023/08/25 18:34:05;;;;;;;8.18;6.55;;;;;;;23.62;52.25;100797.03;16121003;19;130478;-63
2023/08/25 18:39:28;;;;;;;9.63;6.68;;;;;;;23.62;52.10;100797.03;16118297;19;129405;-69
2023/08/25 18:44:50;;;;;;;8.35;6.28;;;;;;;23.61;52.19;100806.53;16118522;19;130932;-63
2023/08/25 18:50:12;;;;;;;8.75;6.35;;;;;;;23.60;52.04;100821.63;16113952;19;129413;-73
2023/08/25 18:55:33;;;;;;;8.82;5.47;;;;;;;23.57;52.44;100813.78;16113961;19;130420;-68
2023/08/25 19:00:57;;;;;;;9.30;6.20;;;;;;;23.56;52.00;100831.63;16115831;19;130901;-69
2023/08/25 19:06:19;;;;;;;8.32;6.10;;;;;;;23.54;52.09;100839.47;16114192;19;129688;-68
2023/08/25 19:11:41;;;;;;;7.28;5.80;;;;;;;23.52;52.03;100833.31;16117977;19;130925;-63
2023/08/25 19:17:03;;;;;;;8.38;5.93;;;;;;;23.52;51.77;100841.69;16121120;19;129797;-63
2023/08/25 19:22:25;;;;;;;8.27;5.28;;;;;;;23.50;52.22;100846.75;16116615;19;132856;-63
2023/08/25 19:27:47;;;;;;;5.93;4.95;;;;;;;23.49;52.10;100836.69;16112350;19;130569;-62
2023/08/25 19:33:09;;;;;;;9.00;5.07;;;;;;;23.47;52.26;100844.50;16184240;19;128981;-61
2023/08/25 19:38:31;;;;;;;16.45;5.32;;;;;;;23.45;51.89;100841.16;16167924;19;130254;-63
2023/08/25 19:43:53;;;;;;;12.00;5.35;;;;;;;23.46;51.97;100859.59;16126449;19;129630;-62
2023/08/25 19:49:15;;;;;;;11.55;6.00;;;;;;;23.47;52.10;100864.06;16138632;19;130553;-62
2023/08/25 19:54:37;;;;;;;15.40;4.90;;;;;;;23.50;52.20;100880.25;16181985;19;131505;-63
2023/08/25 19:59:59;;;;;;;10.20;4.90;;;;;;;23.53;52.20;100881.63;16193840;19;129336;-61
2023/08/25 20:05:21;;;;;;;13.13;5.35;;;;;;;23.55;52.41;100880.22;16195353;19;130715;-61
2023/08/25 20:10:43;;;;;;;12.88;5.65;;;;;;;23.57;52.57;100886.38;16196431;19;130247;-62
2023/08/25 20:16:05;;;;;;;8.45;4.35;;;;;;;23.60;52.80;100888.66;16183280;19;129587;-63
2023/08/25 20:21:27;;;;;;;13.98;5.10;;;;;;;23.61;52.57;100879.16;16191815;19;130803;-64
2023/08/25 20:26:49;;;;;;;7.57;4.55;;;;;;;23.62;52.52;100880.81;16186513;19;129659;-62
2023/08/25 20:32:11;;;;;;;16.50;4.40;;;;;;;23.62;52.40;100880.81;16156784;19;129458;-62
2023/08/25 20:37:33;;;;;;;13.70;4.93;;;;;;;23.64;52.85;100886.13;16142151;19;130359;-62
2023/08/25 20:42:55;;;;;;;19.73;5.00;;;;;;;23.65;52.71;100880.25;16148531;19;129442;-61
2023/08/25 20:48:18;;;;;;;13.98;5.00;;;;;;;23.65;52.64;100876.63;16121023;19;129737;-60
2023/08/25 20:53:39;;;;;;;15.40;4.72;;;;;;;23.63;52.94;100874.09;16123936;19;132857;-59
2023/08/25 20:59:01;;;;;;;10.82;5.25;;;;;;;23.60;52.74;100888.66;16126622;19;129987;-60
2023/08/25 21:04:23;;;;;;;12.15;5.00;;;;;;;23.58;52.70;100890.88;16125494;19;129577;-58
2023/08/25 21:09:46;;;;;;;11.95;4.57;;;;;;;23.56;52.92;100907.03;16112683;19;130093;-60
2023/08/25 21:15:09;;;;;;;10.65;4.50;;;;;;;23.53;52.97;100899.22;16109963;19;129974;-59
2023/08/25 21:20:31;;;;;;;10.15;4.15;;;;;;;23.50;52.86;100905.38;16107826;19;130180;-59
2023/08/25 21:25:54;;;;;;;10.73;4.07;;;;;;;23.47;52.49;100906.75;16104454;19;130522;-60
2023/08/25 21:31:20;;;;;;;8.48;4.00;;;;;;;23.46;52.58;100893.09;16107166;19;131220;-60
2023/08/25 21:36:42;;;;;;;8.27;3.90;;;;;;;23.43;52.66;100894.50;16108910;19;129248;-60
2023/08/25 21:42:04;;;;;;;9.00;3.83;;;;;;;23.41;52.73;100910.69;16106225;19;131013;-60
2023/08/25 21:47:27;;;;;;;14.38;4.22;;;;;;;23.41;52.69;100918.22;16106081;19;130419;-60
2023/08/25 21:52:50;;;;;;;13.82;4.18;;;;;;;23.38;52.68;100916.00;16105414;19;129701;-60
2023/08/25 21:58:12;;;;;;;11.25;3.90;;;;;;;23.36;52.36;100913.47;16104855;19;131608;-60
2023/08/25 22:03:34;;;;;;;6.22;3.92;;;;;;;23.34;52.30;100908.16;16106707;19;133061;-60
2023/08/25 22:08:57;;;;;;;11.13;4.28;;;;;;;23.34;52.62;100908.16;16099715;19;130388;-60
2023/08/25 22:14:19;;;;;;;4.15;2.90;;;;;;;23.32;52.47;100920.75;16089396;19;131387;-60
2023/08/25 22:19:41;;;;;;;6.70;3.78;;;;;;;23.30;52.26;100923.78;16106179;19;132007;-60
2023/08/25 22:25:13;;;;;;;10.00;3.60;;;;;;;23.28;52.28;100937.19;16112908;19;131162;-60
2023/08/25 22:30:35;;;;;;;6.88;3.53;;;;;;;23.27;52.23;100946.66;16125961;19;129596;-60
2023/08/25 22:35:57;;;;;;;4.43;3.30;;;;;;;23.25;52.22;100943.34;16123297;19;130742;-59
2023/08/25 22:41:19;;;;;;;10.63;3.38;;;;;;;23.25;52.32;100950.88;16122655;19;131552;-60
2023/08/25 22:46:41;;;;;;;5.63;3.40;;;;;;;23.23;52.24;100951.16;16122097;19;131573;-60
2023/08/25 22:52:03;;;;;;;7.07;3.15;;;;;;;23.21;52.13;100958.97;16118806;19;130243;-60
2023/08/25 22:57:25;;;;;;;5.90;2.92;;;;;;;23.20;52.26;100965.66;16121728;19;130420;-59
2023/08/25 23:02:47;;;;;;;4.53;2.70;;;;;;;23.20;52.16;100968.44;16119700;19;129644;-60
2023/08/25 23:08:10;;;;;;;6.10;3.25;;;;;;;23.19;52.17;100972.34;16122301;19;129746;-60
2023/08/25 23:13:32;;;;;;;4.20;2.55;;;;;;;23.17;52.01;100969.84;16122037;19;130734;-60
2023/08/25 23:18:54;;;;;;;3.80;2.60;;;;;;;23.16;51.92;100970.09;16120654;19;130774;-60
2023/08/25 23:24:16;;;;;;;8.95;2.35;;;;;;;23.15;52.02;100965.63;16119007;19;131091;-59
2023/08/25 23:29:39;;;;;;;6.13;2.75;;;;;;;23.13;51.81;100962.31;16117058;19;129285;-60
2023/08/25 23:35:01;;;;;;;3.10;2.28;;;;;;;23.13;51.90;100963.13;16115143;19;130134;-61
2023/08/25 23:40:23;;;;;;;4.28;2.50;;;;;;;23.12;51.99;100966.22;16119072;19;129948;-60
2023/08/25 23:45:46;;;;;;;4.70;2.33;;;;;;;23.11;51.96;100965.34;16119205;19;129812;-60
2023/08/25 23:51:08;;;;;;;2.55;2.35;;;;;;;23.09;51.97;100972.34;16116510;19;131537;-59
2023/08/25 23:56:30;;;;;;;3.13;2.13;;;;;;;23.08;51.65;100965.91;16113164;19;129831;-60
